sensor_id;sensor_type;location;lat;lon;timestamp;P1;durP1;ratioP1;P2;durP2;ratioP2
3433;SDS011;1730;41.932;25.548;2023-10-13T00:01:56;3.70;;;3.40;;
3433;SDS011;1730;41.932;25.548;2023-10-13T00:04:27;6.90;;;3.10;;
3433;SDS011;1730;41.932;25.548;2023-10-13T00:06:54;3.97;;;3.57;;
3433;SDS011;1730;41.932;25.548;2023-10-13T00:09:25;3.00;;;2.63;;
3433;SDS011;1730;41.932;25.548;2023-10-13T00:11:57;6.40;;;2.63;;
3433;SDS011;1730;41.932;25.548;2023-10-13T00:14:25;2.83;;;2.63;;
3433;SDS011;1730;41.932;25.548;2023-10-13T00:16:57;3.07;;;2.87;;
3433;SDS011;1730;41.932;25.548;2023-10-13T00:19:54;3.00;;;2.80;;
3433;SDS011;1730;41.932;25.548;2023-10-13T00:22:23;3.20;;;3.00;;
3433;SDS011;1730;41.932;25.548;2023-10-13T00:24:49;4.27;;;3.00;;
3433;SDS011;1730;41.932;25.548;2023-10-13T00:27:17;4.00;;;2.40;;
3433;SDS011;1730;41.932;25.548;2023-10-13T00:30:05;3.00;;;2.70;;
3433;SDS011;1730;41.932;25.548;2023-10-13T00:32:48;5.70;;;2.80;;
3433;SDS011;1730;41.932;25.548;2023-10-13T00:35:25;3.73;;;3.00;;
3433;SDS011;1730;41.932;25.548;2023-10-13T00:38:00;3.60;;;3.20;;
3433;SDS011;1730;41.932;25.548;2023-10-13T00:40:29;5.70;;;3.23;;
3433;SDS011;1730;41.932;25.548;2023-10-13T00:42:59;4.60;;;3.00;;
3433;SDS011;1730;41.932;25.548;2023-10-13T00:45:45;3.50;;;3.20;;
3433;SDS011;1730;41.932;25.548;2023-10-13T00:48:25;5.03;;;3.07;;
3433;SDS011;1730;41.932;25.548;2023-10-13T00:51:00;8.73;;;2.70;;
3433;SDS011;1730;41.932;25.548;2023-10-13T00:53:34;3.17;;;2.87;;
3433;SDS011;1730;41.932;25.548;2023-10-13T00:56:05;6.37;;;2.93;;
3433;SDS011;1730;41.932;25.548;2023-10-13T00:58:44;3.00;;;2.70;;
3433;SDS011;1730;41.932;25.548;2023-10-13T01:01:11;2.70;;;2.50;;
3433;SDS011;1730;41.932;25.548;2023-10-13T01:03:50;4.97;;;2.90;;
3433;SDS011;1730;41.932;25.548;2023-10-13T01:06:20;2.93;;;2.73;;
3433;SDS011;1730;41.932;25.548;2023-10-13T01:08:57;4.20;;;3.43;;
3433;SDS011;1730;41.932;25.548;2023-10-13T01:11:25;3.50;;;3.23;;
3433;SDS011;1730;41.932;25.548;2023-10-13T01:13:52;4.03;;;2.60;;
3433;SDS011;1730;41.932;25.548;2023-10-13T01:16:21;2.70;;;2.50;;
3433;SDS011;1730;41.932;25.548;2023-10-13T01:18:48;3.20;;;2.90;;
3433;SDS011;1730;41.932;25.548;2023-10-13T01:21:17;3.23;;;2.90;;
3433;SDS011;1730;41.932;25.548;2023-10-13T01:23:45;6.00;;;2.90;;
3433;SDS011;1730;41.932;25.548;2023-10-13T01:26:13;4.00;;;3.30;;
3433;SDS011;1730;41.932;25.548;2023-10-13T01:28:46;4.40;;;3.30;;
3433;SDS011;1730;41.932;25.548;2023-10-13T01:31:13;3.17;;;2.87;;
3433;SDS011;1730;41.932;25.548;2023-10-13T01:33:49;2.93;;;2.73;;
3433;SDS011;1730;41.932;25.548;2023-10-13T01:36:19;5.50;;;2.93;;
3433;SDS011;1730;41.932;25.548;2023-10-13T01:38:45;3.03;;;2.60;;
3433;SDS011;1730;41.932;25.548;2023-10-13T01:41:12;5.07;;;2.70;;
3433;SDS011;1730;41.932;25.548;2023-10-13T01:43:39;4.00;;;2.90;;
3433;SDS011;1730;41.932;25.548;2023-10-13T01:46:04;3.00;;;2.70;;
3433;SDS011;1730;41.932;25.548;2023-10-13T01:48:30;8.93;;;3.30;;
3433;SDS011;1730;41.932;25.548;2023-10-13T01:50:57;7.03;;;3.50;;
3433;SDS011;1730;41.932;25.548;2023-10-13T01:53:29;7.93;;;3.13;;
3433;SDS011;1730;41.932;25.548;2023-10-13T01:55:55;6.63;;;3.30;;
3433;SDS011;1730;41.932;25.548;2023-10-13T01:58:23;3.53;;;3.10;;
3433;SDS011;1730;41.932;25.548;2023-10-13T02:00:51;5.70;;;2.90;;
3433;SDS011;1730;41.932;25.548;2023-10-13T02:03:17;5.63;;;3.53;;
3433;SDS011;1730;41.932;25.548;2023-10-13T02:05:43;5.70;;;2.70;;
3433;SDS011;1730;41.932;25.548;2023-10-13T02:08:16;6.63;;;3.37;;
3433;SDS011;1730;41.932;25.548;2023-10-13T02:10:48;3.00;;;2.80;;
3433;SDS011;1730;41.932;25.548;2023-10-13T02:13:14;4.17;;;3.37;;
3433;SDS011;1730;41.932;25.548;2023-10-13T02:15:44;4.20;;;2.90;;
3433;SDS011;1730;41.932;25.548;2023-10-13T02:18:12;4.23;;;2.87;;
3433;SDS011;1730;41.932;25.548;2023-10-13T02:20:45;7.63;;;3.27;;
3433;SDS011;1730;41.932;25.548;2023-10-13T02:23:12;3.80;;;3.50;;
3433;SDS011;1730;41.932;25.548;2023-10-13T02:25:37;5.73;;;3.27;;
3433;SDS011;1730;41.932;25.548;2023-10-13T02:28:11;3.60;;;3.30;;
3433;SDS011;1730;41.932;25.548;2023-10-13T02:30:43;3.53;;;3.33;;
3433;SDS011;1730;41.932;25.548;2023-10-13T02:33:16;5.83;;;3.80;;
3433;SDS011;1730;41.932;25.548;2023-10-13T02:35:55;7.27;;;4.13;;
3433;SDS011;1730;41.932;25.548;2023-10-13T02:38:24;8.93;;;4.20;;
3433;SDS011;1730;41.932;25.548;2023-10-13T02:41:02;7.33;;;3.73;;
3433;SDS011;1730;41.932;25.548;2023-10-13T02:43:34;6.00;;;3.97;;
3433;SDS011;1730;41.932;25.548;2023-10-13T02:46:00;3.83;;;3.40;;
3433;SDS011;1730;41.932;25.548;2023-10-13T02:48:26;12.90;;;3.60;;
3433;SDS011;1730;41.932;25.548;2023-10-13T02:51:06;9.57;;;3.57;;
3433;SDS011;1730;41.932;25.548;2023-10-13T02:53:45;5.57;;;4.30;;
3433;SDS011;1730;41.932;25.548;2023-10-13T02:56:14;6.53;;;4.23;;
3433;SDS011;1730;41.932;25.548;2023-10-13T02:58:47;4.13;;;3.83;;
3433;SDS011;1730;41.932;25.548;2023-10-13T03:01:19;5.23;;;3.47;;
3433;SDS011;1730;41.932;25.548;2023-10-13T03:03:49;4.90;;;3.40;;
3433;SDS011;1730;41.932;25.548;2023-10-13T03:06:24;6.17;;;3.57;;
3433;SDS011;1730;41.932;25.548;2023-10-13T03:08:58;5.83;;;3.50;;
3433;SDS011;1730;41.932;25.548;2023-10-13T03:11:43;6.63;;;3.70;;
3433;SDS011;1730;41.932;25.548;2023-10-13T03:14:19;3.73;;;3.43;;
3433;SDS011;1730;41.932;25.548;2023-10-13T03:17:01;6.07;;;4.03;;
3433;SDS011;1730;41.932;25.548;2023-10-13T03:19:28;5.67;;;3.70;;
3433;SDS011;1730;41.932;25.548;2023-10-13T03:22:02;4.20;;;3.47;;
3433;SDS011;1730;41.932;25.548;2023-10-13T03:24:36;3.43;;;3.13;;
3433;SDS011;1730;41.932;25.548;2023-10-13T03:27:10;4.37;;;4.07;;
3433;SDS011;1730;41.932;25.548;2023-10-13T03:29:42;4.30;;;4.00;;
3433;SDS011;1730;41.932;25.548;2023-10-13T03:32:12;8.93;;;3.90;;
3433;SDS011;1730;41.932;25.548;2023-10-13T03:34:40;4.17;;;3.53;;
3433;SDS011;1730;41.932;25.548;2023-10-13T03:37:19;7.20;;;3.93;;
3433;SDS011;1730;41.932;25.548;2023-10-13T03:40:06;4.37;;;3.97;;
3433;SDS011;1730;41.932;25.548;2023-10-13T03:43:02;6.27;;;4.10;;
3433;SDS011;1730;41.932;25.548;2023-10-13T03:45:40;4.50;;;4.10;;
3433;SDS011;1730;41.932;25.548;2023-10-13T03:48:14;4.57;;;4.10;;
3433;SDS011;1730;41.932;25.548;2023-10-13T03:50:57;4.47;;;4.07;;
3433;SDS011;1730;41.932;25.548;2023-10-13T03:53:31;7.13;;;3.87;;
3433;SDS011;1730;41.932;25.548;2023-10-13T03:58:33;8.30;;;3.57;;
3433;SDS011;1730;41.932;25.548;2023-10-13T04:01:07;6.10;;;4.10;;
3433;SDS011;1730;41.932;25.548;2023-10-13T04:03:35;4.73;;;3.40;;
3433;SDS011;1730;41.932;25.548;2023-10-13T04:06:06;7.13;;;4.00;;
3433;SDS011;1730;41.932;25.548;2023-10-13T04:08:32;6.77;;;4.37;;
3433;SDS011;1730;41.932;25.548;2023-10-13T04:11:13;5.60;;;3.80;;
3433;SDS011;1730;41.932;25.548;2023-10-13T04:13:57;5.90;;;3.67;;
3433;SDS011;1730;41.932;25.548;2023-10-13T04:16:42;4.10;;;3.40;;
3433;SDS011;1730;41.932;25.548;2023-10-13T04:19:17;6.30;;;3.97;;
3433;SDS011;1730;41.932;25.548;2023-10-13T04:21:51;13.17;;;4.30;;
3433;SDS011;1730;41.932;25.548;2023-10-13T04:24:23;4.40;;;4.03;;
3433;SDS011;1730;41.932;25.548;2023-10-13T04:27:02;5.47;;;4.00;;
3433;SDS011;1730;41.932;25.548;2023-10-13T04:29:37;6.07;;;4.37;;
3433;SDS011;1730;41.932;25.548;2023-10-13T04:32:22;4.70;;;4.40;;
3433;SDS011;1730;41.932;25.548;2023-10-13T04:34:57;5.63;;;4.07;;
3433;SDS011;1730;41.932;25.548;2023-10-13T04:37:33;5.67;;;4.10;;
3433;SDS011;1730;41.932;25.548;2023-10-13T04:40:13;6.53;;;4.00;;
3433;SDS011;1730;41.932;25.548;2023-10-13T04:42:40;10.60;;;4.50;;
3433;SDS011;1730;41.932;25.548;2023-10-13T04:45:31;7.07;;;4.60;;
3433;SDS011;1730;41.932;25.548;2023-10-13T04:47:56;6.40;;;5.13;;
3433;SDS011;1730;41.932;25.548;2023-10-13T04:50:59;8.37;;;4.43;;
3433;SDS011;1730;41.932;25.548;2023-10-13T04:53:45;11.40;;;4.87;;
3433;SDS011;1730;41.932;25.548;2023-10-13T04:56:29;5.57;;;5.07;;
3433;SDS011;1730;41.932;25.548;2023-10-13T04:59:23;7.50;;;5.00;;
3433;SDS011;1730;41.932;25.548;2023-10-13T05:02:02;12.50;;;5.77;;
3433;SDS011;1730;41.932;25.548;2023-10-13T05:04:47;13.70;;;5.50;;
3433;SDS011;1730;41.932;25.548;2023-10-13T05:07:34;15.03;;;5.00;;
3433;SDS011;1730;41.932;25.548;2023-10-13T05:10:18;17.00;;;5.03;;
3433;SDS011;1730;41.932;25.548;2023-10-13T05:13:03;24.63;;;5.63;;
3433;SDS011;1730;41.932;25.548;2023-10-13T05:15:48;7.00;;;6.27;;
3433;SDS011;1730;41.932;25.548;2023-10-13T05:18:33;9.20;;;6.20;;
3433;SDS011;1730;41.932;25.548;2023-10-13T05:21:17;8.57;;;6.53;;
3433;SDS011;1730;41.932;25.548;2023-10-13T05:24:02;7.43;;;6.50;;
3433;SDS011;1730;41.932;25.548;2023-10-13T05:26:47;12.43;;;5.40;;
3433;SDS011;1730;41.932;25.548;2023-10-13T05:29:31;6.47;;;4.87;;
3433;SDS011;1730;41.932;25.548;2023-10-13T05:32:16;9.30;;;5.53;;
3433;SDS011;1730;41.932;25.548;2023-10-13T05:35:00;13.10;;;5.05;;
3433;SDS011;1730;41.932;25.548;2023-10-13T05:37:45;7.83;;;4.17;;
3433;SDS011;1730;41.932;25.548;2023-10-13T05:40:29;7.80;;;5.03;;
3433;SDS011;1730;41.932;25.548;2023-10-13T05:43:13;7.30;;;4.90;;
3433;SDS011;1730;41.932;25.548;2023-10-13T05:46:06;11.00;;;5.90;;
3433;SDS011;1730;41.932;25.548;2023-10-13T05:48:50;9.30;;;5.30;;
3433;SDS011;1730;41.932;25.548;2023-10-13T05:51:31;19.23;;;5.50;;
3433;SDS011;1730;41.932;25.548;2023-10-13T05:53:57;10.77;;;6.10;;
3433;SDS011;1730;41.932;25.548;2023-10-13T05:56:39;8.00;;;6.17;;
3433;SDS011;1730;41.932;25.548;2023-10-13T05:59:24;23.00;;;6.90;;
3433;SDS011;1730;41.932;25.548;2023-10-13T06:02:08;12.90;;;5.90;;
3433;SDS011;1730;41.932;25.548;2023-10-13T06:04:52;13.33;;;4.97;;
3433;SDS011;1730;41.932;25.548;2023-10-13T06:07:36;8.87;;;4.80;;
3433;SDS011;1730;41.932;25.548;2023-10-13T06:10:21;11.00;;;5.90;;
3433;SDS011;1730;41.932;25.548;2023-10-13T06:13:04;11.37;;;5.73;;
3433;SDS011;1730;41.932;25.548;2023-10-13T06:15:49;17.63;;;6.97;;
3433;SDS011;1730;41.932;25.548;2023-10-13T06:18:33;15.00;;;5.97;;
3433;SDS011;1730;41.932;25.548;2023-10-13T06:21:18;10.50;;;5.20;;
3433;SDS011;1730;41.932;25.548;2023-10-13T06:24:04;9.77;;;5.10;;
3433;SDS011;1730;41.932;25.548;2023-10-13T06:26:49;10.17;;;5.53;;
3433;SDS011;1730;41.932;25.548;2023-10-13T06:29:33;12.43;;;6.80;;
3433;SDS011;1730;41.932;25.548;2023-10-13T06:31:59;14.30;;;7.50;;
3433;SDS011;1730;41.932;25.548;2023-10-13T06:34:29;21.70;;;10.60;;
3433;SDS011;1730;41.932;25.548;2023-10-13T06:37:14;25.33;;;11.10;;
3433;SDS011;1730;41.932;25.548;2023-10-13T06:39:54;25.80;;;9.97;;
3433;SDS011;1730;41.932;25.548;2023-10-13T06:42:28;19.23;;;9.43;;
3433;SDS011;1730;41.932;25.548;2023-10-13T06:44:54;18.37;;;9.77;;
3433;SDS011;1730;41.932;25.548;2023-10-13T06:47:22;18.10;;;9.27;;
3433;SDS011;1730;41.932;25.548;2023-10-13T06:49:53;23.47;;;10.40;;
3433;SDS011;1730;41.932;25.548;2023-10-13T06:52:20;16.50;;;9.37;;
3433;SDS011;1730;41.932;25.548;2023-10-13T06:54:57;44.10;;;21.97;;
3433;SDS011;1730;41.932;25.548;2023-10-13T06:57:28;40.73;;;28.33;;
3433;SDS011;1730;41.932;25.548;2023-10-13T07:00:01;16.13;;;7.93;;
3433;SDS011;1730;41.932;25.548;2023-10-13T07:02:34;23.50;;;8.07;;
3433;SDS011;1730;41.932;25.548;2023-10-13T07:05:00;22.87;;;8.20;;
3433;SDS011;1730;41.932;25.548;2023-10-13T07:07:38;21.53;;;9.23;;
3433;SDS011;1730;41.932;25.548;2023-10-13T07:10:10;22.33;;;9.77;;
3433;SDS011;1730;41.932;25.548;2023-10-13T07:12:37;23.40;;;9.20;;
3433;SDS011;1730;41.932;25.548;2023-10-13T07:15:11;31.97;;;9.00;;
3433;SDS011;1730;41.932;25.548;2023-10-13T07:17:45;42.80;;;17.10;;
3433;SDS011;1730;41.932;25.548;2023-10-13T07:20:15;21.13;;;9.00;;
3433;SDS011;1730;41.932;25.548;2023-10-13T07:22:50;21.80;;;8.30;;
3433;SDS011;1730;41.932;25.548;2023-10-13T07:25:32;27.43;;;8.67;;
3433;SDS011;1730;41.932;25.548;2023-10-13T07:27:59;16.10;;;8.23;;
3433;SDS011;1730;41.932;25.548;2023-10-13T07:30:25;28.43;;;8.43;;
3433;SDS011;1730;41.932;25.548;2023-10-13T07:32:52;18.13;;;7.77;;
3433;SDS011;1730;41.932;25.548;2023-10-13T07:35:19;16.00;;;7.40;;
3433;SDS011;1730;41.932;25.548;2023-10-13T07:37:45;13.47;;;5.93;;
3433;SDS011;1730;41.932;25.548;2023-10-13T07:40:17;12.63;;;6.03;;
3433;SDS011;1730;41.932;25.548;2023-10-13T07:42:56;17.80;;;6.57;;
3433;SDS011;1730;41.932;25.548;2023-10-13T07:45:37;24.47;;;7.20;;
3433;SDS011;1730;41.932;25.548;2023-10-13T07:48:09;9.03;;;5.63;;
3433;SDS011;1730;41.932;25.548;2023-10-13T07:51:02;12.50;;;4.87;;
3433;SDS011;1730;41.932;25.548;2023-10-13T07:53:32;13.20;;;5.10;;
3433;SDS011;1730;41.932;25.548;2023-10-13T07:56:01;10.33;;;5.70;;
3433;SDS011;1730;41.932;25.548;2023-10-13T07:58:34;14.17;;;5.00;;
3433;SDS011;1730;41.932;25.548;2023-10-13T08:01:12;8.10;;;5.10;;
3433;SDS011;1730;41.932;25.548;2023-10-13T08:03:42;14.33;;;6.07;;
3433;SDS011;1730;41.932;25.548;2023-10-13T08:06:13;7.27;;;3.90;;
3433;SDS011;1730;41.932;25.548;2023-10-13T08:08:40;8.13;;;4.30;;
3433;SDS011;1730;41.932;25.548;2023-10-13T08:11:14;7.73;;;4.70;;
3433;SDS011;1730;41.932;25.548;2023-10-13T08:16:38;6.13;;;5.17;;
3433;SDS011;1730;41.932;25.548;2023-10-13T08:19:15;8.90;;;4.53;;
3433;SDS011;1730;41.932;25.548;2023-10-13T08:21:44;8.67;;;4.80;;
3433;SDS011;1730;41.932;25.548;2023-10-13T08:24:26;9.73;;;4.10;;
3433;SDS011;1730;41.932;25.548;2023-10-13T08:27:09;13.57;;;4.50;;
3433;SDS011;1730;41.932;25.548;2023-10-13T08:29:45;13.30;;;4.83;;
3433;SDS011;1730;41.932;25.548;2023-10-13T08:32:21;11.57;;;4.37;;
3433;SDS011;1730;41.932;25.548;2023-10-13T08:34:55;9.40;;;4.37;;
3433;SDS011;1730;41.932;25.548;2023-10-13T08:37:24;9.47;;;4.77;;
3433;SDS011;1730;41.932;25.548;2023-10-13T08:39:54;9.43;;;5.63;;
3433;SDS011;1730;41.932;25.548;2023-10-13T08:42:28;10.17;;;4.83;;
3433;SDS011;1730;41.932;25.548;2023-10-13T08:45:15;10.87;;;4.70;;
3433;SDS011;1730;41.932;25.548;2023-10-13T08:47:51;7.03;;;4.70;;
3433;SDS011;1730;41.932;25.548;2023-10-13T08:58:39;11.23;;;4.67;;
3433;SDS011;1730;41.932;25.548;2023-10-13T09:04:11;7.33;;;4.13;;
3433;SDS011;1730;41.932;25.548;2023-10-13T09:12:18;7.30;;;4.20;;
3433;SDS011;1730;41.932;25.548;2023-10-13T09:14:51;8.23;;;4.93;;
3433;SDS011;1730;41.932;25.548;2023-10-13T09:17:26;8.70;;;5.30;;
3433;SDS011;1730;41.932;25.548;2023-10-13T09:19:59;7.87;;;4.43;;
3433;SDS011;1730;41.932;25.548;2023-10-13T09:22:56;9.87;;;4.27;;
3433;SDS011;1730;41.932;25.548;2023-10-13T09:25:28;16.50;;;4.27;;
3433;SDS011;1730;41.932;25.548;2023-10-13T09:28:01;9.17;;;4.10;;
3433;SDS011;1730;41.932;25.548;2023-10-13T09:30:58;8.53;;;4.10;;
3433;SDS011;1730;41.932;25.548;2023-10-13T09:33:27;9.70;;;4.20;;
3433;SDS011;1730;41.932;25.548;2023-10-13T09:36:00;5.70;;;3.90;;
3433;SDS011;1730;41.932;25.548;2023-10-13T09:38:32;10.77;;;4.37;;
3433;SDS011;1730;41.932;25.548;2023-10-13T09:40:59;4.97;;;4.57;;
3433;SDS011;1730;41.932;25.548;2023-10-13T09:43:34;9.43;;;4.30;;
3433;SDS011;1730;41.932;25.548;2023-10-13T09:46:02;8.30;;;4.10;;
3433;SDS011;1730;41.932;25.548;2023-10-13T09:48:33;6.97;;;4.03;;
3433;SDS011;1730;41.932;25.548;2023-10-13T09:51:01;5.57;;;3.90;;
3433;SDS011;1730;41.932;25.548;2023-10-13T09:53:34;7.53;;;4.20;;
3433;SDS011;1730;41.932;25.548;2023-10-13T09:56:05;11.40;;;4.33;;
3433;SDS011;1730;41.932;25.548;2023-10-13T09:59:04;4.03;;;3.63;;
3433;SDS011;1730;41.932;25.548;2023-10-13T10:01:41;5.13;;;4.00;;
3433;SDS011;1730;41.932;25.548;2023-10-13T10:04:22;8.23;;;4.73;;
3433;SDS011;1730;41.932;25.548;2023-10-13T10:07:06;9.83;;;4.67;;
3433;SDS011;1730;41.932;25.548;2023-10-13T10:09:34;5.73;;;3.97;;
3433;SDS011;1730;41.932;25.548;2023-10-13T10:15:01;11.80;;;5.10;;
3433;SDS011;1730;41.932;25.548;2023-10-13T10:17:59;12.30;;;4.33;;
3433;SDS011;1730;41.932;25.548;2023-10-13T10:20:32;7.30;;;4.50;;
3433;SDS011;1730;41.932;25.548;2023-10-13T10:23:06;8.70;;;4.07;;
3433;SDS011;1730;41.932;25.548;2023-10-13T10:25:47;9.67;;;4.40;;
3433;SDS011;1730;41.932;25.548;2023-10-13T10:28:15;8.77;;;4.50;;
3433;SDS011;1730;41.932;25.548;2023-10-13T10:30:41;11.30;;;4.60;;
3433;SDS011;1730;41.932;25.548;2023-10-13T10:33:08;5.43;;;4.37;;
3433;SDS011;1730;41.932;25.548;2023-10-13T10:35:46;12.23;;;4.90;;
3433;SDS011;1730;41.932;25.548;2023-10-13T10:38:23;9.27;;;4.33;;
3433;SDS011;1730;41.932;25.548;2023-10-13T10:40:50;10.30;;;4.67;;
3433;SDS011;1730;41.932;25.548;2023-10-13T10:43:26;8.90;;;4.27;;
3433;SDS011;1730;41.932;25.548;2023-10-13T10:45:54;12.03;;;4.50;;
3433;SDS011;1730;41.932;25.548;2023-10-13T10:48:26;4.90;;;4.10;;
3433;SDS011;1730;41.932;25.548;2023-10-13T10:51:00;11.53;;;4.80;;
3433;SDS011;1730;41.932;25.548;2023-10-13T10:53:33;9.60;;;4.97;;
3433;SDS011;1730;41.932;25.548;2023-10-13T10:56:08;6.43;;;4.50;;
3433;SDS011;1730;41.932;25.548;2023-10-13T10:58:58;8.10;;;4.37;;
3433;SDS011;1730;41.932;25.548;2023-10-13T11:01:25;9.57;;;4.70;;
3433;SDS011;1730;41.932;25.548;2023-10-13T11:04:12;10.70;;;4.70;;
3433;SDS011;1730;41.932;25.548;2023-10-13T11:06:48;8.30;;;4.30;;
3433;SDS011;1730;41.932;25.548;2023-10-13T11:09:23;9.20;;;4.20;;
3433;SDS011;1730;41.932;25.548;2023-10-13T11:12:09;6.83;;;4.73;;
3433;SDS011;1730;41.932;25.548;2023-10-13T11:15:03;6.90;;;4.00;;
3433;SDS011;1730;41.932;25.548;2023-10-13T11:17:50;8.83;;;4.33;;
3433;SDS011;1730;41.932;25.548;2023-10-13T11:20:20;5.30;;;4.80;;
3433;SDS011;1730;41.932;25.548;2023-10-13T11:23:14;6.43;;;5.83;;
3433;SDS011;1730;41.932;25.548;2023-10-13T11:25:41;8.77;;;4.40;;
3433;SDS011;1730;41.932;25.548;2023-10-13T11:28:13;5.23;;;3.93;;
3433;SDS011;1730;41.932;25.548;2023-10-13T11:30:46;8.57;;;3.97;;
3433;SDS011;1730;41.932;25.548;2023-10-13T11:33:16;5.67;;;4.43;;
3433;SDS011;1730;41.932;25.548;2023-10-13T11:35:54;9.43;;;4.90;;
3433;SDS011;1730;41.932;25.548;2023-10-13T11:38:30;5.90;;;4.57;;
3433;SDS011;1730;41.932;25.548;2023-10-13T11:41:06;6.47;;;4.60;;
3433;SDS011;1730;41.932;25.548;2023-10-13T11:43:32;5.67;;;5.10;;
3433;SDS011;1730;41.932;25.548;2023-10-13T11:46:25;4.20;;;3.80;;
3433;SDS011;1730;41.932;25.548;2023-10-13T11:49:00;5.13;;;4.30;;
3433;SDS011;1730;41.932;25.548;2023-10-13T11:51:43;18.27;;;4.20;;
3433;SDS011;1730;41.932;25.548;2023-10-13T11:54:16;10.73;;;4.87;;
3433;SDS011;1730;41.932;25.548;2023-10-13T11:56:46;4.97;;;4.10;;
3433;SDS011;1730;41.932;25.548;2023-10-13T11:59:14;9.40;;;4.73;;
3433;SDS011;1730;41.932;25.548;2023-10-13T12:01:46;6.40;;;4.60;;
3433;SDS011;1730;41.932;25.548;2023-10-13T12:04:34;3.90;;;3.50;;
3433;SDS011;1730;41.932;25.548;2023-10-13T12:07:20;8.30;;;4.73;;
3433;SDS011;1730;41.932;25.548;2023-10-13T12:12:27;13.03;;;3.67;;
3433;SDS011;1730;41.932;25.548;2023-10-13T12:14:54;6.60;;;3.93;;
3433;SDS011;1730;41.932;25.548;2023-10-13T12:17:29;6.87;;;4.37;;
3433;SDS011;1730;41.932;25.548;2023-10-13T12:20:02;9.20;;;4.00;;
3433;SDS011;1730;41.932;25.548;2023-10-13T12:22:39;13.33;;;6.93;;
3433;SDS011;1730;41.932;25.548;2023-10-13T12:25:09;6.43;;;5.80;;
3433;SDS011;1730;41.932;25.548;2023-10-13T12:27:50;22.00;;;5.53;;
3433;SDS011;1730;41.932;25.548;2023-10-13T12:30:21;8.73;;;3.70;;
3433;SDS011;1730;41.932;25.548;2023-10-13T12:33:06;11.90;;;3.70;;
3433;SDS011;1730;41.932;25.548;2023-10-13T12:35:34;6.43;;;3.73;;
3433;SDS011;1730;41.932;25.548;2023-10-13T12:38:24;7.33;;;3.87;;
3433;SDS011;1730;41.932;25.548;2023-10-13T12:41:08;7.80;;;3.30;;
3433;SDS011;1730;41.932;25.548;2023-10-13T12:43:52;6.47;;;4.17;;
3433;SDS011;1730;41.932;25.548;2023-10-13T12:46:36;4.17;;;3.77;;
3433;SDS011;1730;41.932;25.548;2023-10-13T12:49:21;10.93;;;4.37;;
3433;SDS011;1730;41.932;25.548;2023-10-13T12:52:05;5.73;;;5.00;;
3433;SDS011;1730;41.932;25.548;2023-10-13T12:54:41;7.60;;;4.40;;
3433;SDS011;1730;41.932;25.548;2023-10-13T12:59:50;13.17;;;5.40;;
3433;SDS011;1730;41.932;25.548;2023-10-13T13:02:19;13.53;;;4.70;;
3433;SDS011;1730;41.932;25.548;2023-10-13T13:04:50;16.40;;;5.90;;
3433;SDS011;1730;41.932;25.548;2023-10-13T13:07:32;10.80;;;5.30;;
3433;SDS011;1730;41.932;25.548;2023-10-13T13:10:09;9.70;;;4.40;;
3433;SDS011;1730;41.932;25.548;2023-10-13T13:12:36;8.57;;;4.23;;
3433;SDS011;1730;41.932;25.548;2023-10-13T13:15:02;10.07;;;4.33;;
3433;SDS011;1730;41.932;25.548;2023-10-13T13:17:33;8.10;;;4.20;;
3433;SDS011;1730;41.932;25.548;2023-10-13T13:20:05;10.37;;;4.47;;
3433;SDS011;1730;41.932;25.548;2023-10-13T13:22:37;8.07;;;4.30;;
3433;SDS011;1730;41.932;25.548;2023-10-13T13:25:03;10.60;;;3.90;;
3433;SDS011;1730;41.932;25.548;2023-10-13T13:27:33;6.93;;;3.80;;
3433;SDS011;1730;41.932;25.548;2023-10-13T13:29:58;14.40;;;4.70;;
3433;SDS011;1730;41.932;25.548;2023-10-13T13:32:23;11.57;;;5.23;;
3433;SDS011;1730;41.932;25.548;2023-10-13T13:34:49;18.20;;;4.63;;
3433;SDS011;1730;41.932;25.548;2023-10-13T13:37:44;11.77;;;4.80;;
3433;SDS011;1730;41.932;25.548;2023-10-13T13:40:10;12.73;;;4.37;;
3433;SDS011;1730;41.932;25.548;2023-10-13T13:42:43;9.47;;;4.40;;
3433;SDS011;1730;41.932;25.548;2023-10-13T13:45:16;11.13;;;4.00;;
3433;SDS011;1730;41.932;25.548;2023-10-13T13:47:57;11.93;;;5.00;;
3433;SDS011;1730;41.932;25.548;2023-10-13T13:50:23;12.03;;;5.67;;
3433;SDS011;1730;41.932;25.548;2023-10-13T13:53:10;9.93;;;4.13;;
3433;SDS011;1730;41.932;25.548;2023-10-13T13:55:36;14.23;;;4.63;;
3433;SDS011;1730;41.932;25.548;2023-10-13T13:58:05;9.87;;;5.97;;
3433;SDS011;1730;41.932;25.548;2023-10-13T14:00:33;11.73;;;4.10;;
3433;SDS011;1730;41.932;25.548;2023-10-13T14:03:27;15.20;;;4.73;;
3433;SDS011;1730;41.932;25.548;2023-10-13T14:05:59;6.73;;;4.00;;
3433;SDS011;1730;41.932;25.548;2023-10-13T14:08:25;10.57;;;6.60;;
3433;SDS011;1730;41.932;25.548;2023-10-13T14:10:53;24.10;;;6.80;;
3433;SDS011;1730;41.932;25.548;2023-10-13T14:13:40;9.00;;;5.20;;
3433;SDS011;1730;41.932;25.548;2023-10-13T14:16:19;7.93;;;4.30;;
3433;SDS011;1730;41.932;25.548;2023-10-13T14:18:50;17.87;;;5.37;;
3433;SDS011;1730;41.932;25.548;2023-10-13T14:21:16;18.27;;;7.53;;
3433;SDS011;1730;41.932;25.548;2023-10-13T14:23:44;9.53;;;5.27;;
3433;SDS011;1730;41.932;25.548;2023-10-13T14:26:13;9.80;;;4.60;;
3433;SDS011;1730;41.932;25.548;2023-10-13T14:28:39;28.03;;;8.10;;
3433;SDS011;1730;41.932;25.548;2023-10-13T14:31:17;12.97;;;7.50;;
3433;SDS011;1730;41.932;25.548;2023-10-13T14:33:45;69.93;;;36.47;;
3433;SDS011;1730;41.932;25.548;2023-10-13T14:36:11;32.00;;;19.90;;
3433;SDS011;1730;41.932;25.548;2023-10-13T14:38:37;107.13;;;55.17;;
3433;SDS011;1730;41.932;25.548;2023-10-13T14:41:02;77.17;;;43.90;;
3433;SDS011;1730;41.932;25.548;2023-10-13T14:43:28;15.67;;;5.37;;
3433;SDS011;1730;41.932;25.548;2023-10-13T14:45:53;51.43;;;29.40;;
3433;SDS011;1730;41.932;25.548;2023-10-13T14:48:19;62.50;;;33.60;;
3433;SDS011;1730;41.932;25.548;2023-10-13T14:50:45;56.53;;;33.37;;
3433;SDS011;1730;41.932;25.548;2023-10-13T14:53:10;61.03;;;33.57;;
3433;SDS011;1730;41.932;25.548;2023-10-13T14:55:36;59.20;;;33.80;;
3433;SDS011;1730;41.932;25.548;2023-10-13T14:58:05;63.07;;;41.70;;
3433;SDS011;1730;41.932;25.548;2023-10-13T15:00:33;88.43;;;54.23;;
3433;SDS011;1730;41.932;25.548;2023-10-13T15:03:00;70.43;;;40.87;;
3433;SDS011;1730;41.932;25.548;2023-10-13T15:05:26;82.50;;;49.27;;
3433;SDS011;1730;41.932;25.548;2023-10-13T15:07:55;40.27;;;23.60;;
3433;SDS011;1730;41.932;25.548;2023-10-13T15:10:21;19.53;;;13.43;;
3433;SDS011;1730;41.932;25.548;2023-10-13T15:12:46;21.40;;;11.37;;
3433;SDS011;1730;41.932;25.548;2023-10-13T15:15:14;22.97;;;14.67;;
3433;SDS011;1730;41.932;25.548;2023-10-13T15:17:44;34.53;;;16.80;;
3433;SDS011;1730;41.932;25.548;2023-10-13T15:20:09;24.17;;;16.30;;
3433;SDS011;1730;41.932;25.548;2023-10-13T15:22:46;17.00;;;11.33;;
3433;SDS011;1730;41.932;25.548;2023-10-13T15:25:15;20.87;;;12.87;;
3433;SDS011;1730;41.932;25.548;2023-10-13T15:27:53;13.47;;;9.00;;
3433;SDS011;1730;41.932;25.548;2023-10-13T15:30:22;19.63;;;9.20;;
3433;SDS011;1730;41.932;25.548;2023-10-13T15:32:56;33.70;;;14.03;;
3433;SDS011;1730;41.932;25.548;2023-10-13T15:35:23;36.67;;;15.20;;
3433;SDS011;1730;41.932;25.548;2023-10-13T15:37:53;31.40;;;16.50;;
3433;SDS011;1730;41.932;25.548;2023-10-13T15:40:20;36.83;;;15.50;;
3433;SDS011;1730;41.932;25.548;2023-10-13T15:42:46;35.10;;;16.00;;
3433;SDS011;1730;41.932;25.548;2023-10-13T15:45:13;25.80;;;14.80;;
3433;SDS011;1730;41.932;25.548;2023-10-13T15:47:47;29.33;;;15.03;;
3433;SDS011;1730;41.932;25.548;2023-10-13T15:50:13;30.97;;;18.30;;
3433;SDS011;1730;41.932;25.548;2023-10-13T15:52:46;39.00;;;21.60;;
3433;SDS011;1730;41.932;25.548;2023-10-13T15:55:15;25.87;;;18.40;;
3433;SDS011;1730;41.932;25.548;2023-10-13T15:57:43;31.83;;;16.20;;
3433;SDS011;1730;41.932;25.548;2023-10-13T16:00:09;21.57;;;11.40;;
3433;SDS011;1730;41.932;25.548;2023-10-13T16:02:55;25.70;;;10.13;;
3433;SDS011;1730;41.932;25.548;2023-10-13T16:05:34;25.53;;;12.07;;
3433;SDS011;1730;41.932;25.548;2023-10-13T16:08:00;29.00;;;15.27;;
3433;SDS011;1730;41.932;25.548;2023-10-13T16:10:27;36.57;;;16.23;;